sensor_id;sensor_type;location;lat;lon;timestamp;temperature;humidity
12957;DHT22;6543;48.836;10.092;2023-11-19T00:00:44;7.30;99.90
12957;DHT22;6543;48.836;10.092;2023-11-19T00:03:10;7.30;99.90
12957;DHT22;6543;48.836;10.092;2023-11-19T00:05:38;7.30;99.90
12957;DHT22;6543;48.836;10.092;2023-11-19T00:08:06;7.40;99.90
12957;DHT22;6543;48.836;10.092;2023-11-19T00:10:34;7.30;99.90
12957;DHT22;6543;48.836;10.092;2023-11-19T00:13:01;7.40;99.90
12957;DHT22;6543;48.836;10.092;2023-11-19T00:15:28;9.10;99.90
12957;DHT22;6543;48.836;10.092;2023-11-19T00:17:55;7.40;99.90
12957;DHT22;6543;48.836;10.092;2023-11-19T00:20:22;9.50;99.90
12957;DHT22;6543;48.836;10.092;2023-11-19T00:22:49;9.40;99.90
12957;DHT22;6543;48.836;10.092;2023-11-19T00:25:19;7.50;99.90
12957;DHT22;6543;48.836;10.092;2023-11-19T00:27:47;7.60;99.90
12957;DHT22;6543;48.836;10.092;2023-11-19T00:30:14;7.60;99.90
12957;DHT22;6543;48.836;10.092;2023-11-19T00:32:42;7.70;99.90
12957;DHT22;6543;48.836;10.092;2023-11-19T00:35:09;8.00;99.90
12957;DHT22;6543;48.836;10.092;2023-11-19T00:37:36;7.70;99.90
12957;DHT22;6543;48.836;10.092;2023-11-19T00:40:04;9.30;99.90
12957;DHT22;6543;48.836;10.092;2023-11-19T00:42:32;7.80;99.90
12957;DHT22;6543;48.836;10.092;2023-11-19T00:44:59;7.80;99.90
12957;DHT22;6543;48.836;10.092;2023-11-19T00:47:26;7.80;99.90
12957;DHT22;6543;48.836;10.092;2023-11-19T00:49:53;7.80;99.90
12957;DHT22;6543;48.836;10.092;2023-11-19T00:52:20;8.30;99.90
12957;DHT22;6543;48.836;10.092;2023-11-19T00:54:47;7.90;99.90
12957;DHT22;6543;48.836;10.092;2023-11-19T00:57:14;8.50;99.90
12957;DHT22;6543;48.836;10.092;2023-11-19T00:59:43;10.40;99.90
12957;DHT22;6543;48.836;10.092;2023-11-19T01:02:10;8.00;99.90
12957;DHT22;6543;48.836;10.092;2023-11-19T01:04:37;8.40;99.90
12957;DHT22;6543;48.836;10.092;2023-11-19T01:07:04;8.00;99.90
12957;DHT22;6543;48.836;10.092;2023-11-19T01:09:31;8.80;99.90
12957;DHT22;6543;48.836;10.092;2023-11-19T01:12:00;8.80;99.90
12957;DHT22;6543;48.836;10.092;2023-11-19T01:14:27;8.00;99.90
12957;DHT22;6543;48.836;10.092;2023-11-19T01:16:55;9.00;99.90
12957;DHT22;6543;48.836;10.092;2023-11-19T01:19:22;8.00;99.90
12957;DHT22;6543;48.836;10.092;2023-11-19T01:21:50;8.00;99.90
12957;DHT22;6543;48.836;10.092;2023-11-19T01:24:17;9.90;99.90
12957;DHT22;6543;48.836;10.092;2023-11-19T01:26:44;7.90;99.90
12957;DHT22;6543;48.836;10.092;2023-11-19T01:29:11;8.00;99.90
12957;DHT22;6543;48.836;10.092;2023-11-19T01:31:39;10.40;99.90
12957;DHT22;6543;48.836;10.092;2023-11-19T01:34:07;10.00;99.90
12957;DHT22;6543;48.836;10.092;2023-11-19T01:36:34;8.40;99.90
12957;DHT22;6543;48.836;10.092;2023-11-19T01:39:01;7.10;99.90
12957;DHT22;6543;48.836;10.092;2023-11-19T01:41:29;10.50;99.90
12957;DHT22;6543;48.836;10.092;2023-11-19T01:43:56;8.10;99.90
12957;DHT22;6543;48.836;10.092;2023-11-19T01:46:24;9.50;99.90
12957;DHT22;6543;48.836;10.092;2023-11-19T01:48:52;8.80;99.90
12957;DHT22;6543;48.836;10.092;2023-11-19T01:51:22;9.60;99.90
12957;DHT22;6543;48.836;10.092;2023-11-19T01:53:49;9.80;99.90
12957;DHT22;6543;48.836;10.092;2023-11-19T01:56:16;10.00;99.90
12957;DHT22;6543;48.836;10.092;2023-11-19T01:58:42;10.00;99.90
12957;DHT22;6543;48.836;10.092;2023-11-19T02:01:10;9.90;99.90
12957;DHT22;6543;48.836;10.092;2023-11-19T02:03:38;9.60;99.90
12957;DHT22;6543;48.836;10.092;2023-11-19T02:06:06;6.60;99.90
12957;DHT22;6543;48.836;10.092;2023-11-19T02:08:37;8.30;99.90
12957;DHT22;6543;48.836;10.092;2023-11-19T02:11:04;8.30;99.90
12957;DHT22;6543;48.836;10.092;2023-11-19T02:13:32;8.50;99.90
12957;DHT22;6543;48.836;10.092;2023-11-19T02:16:01;6.20;99.90
12957;DHT22;6543;48.836;10.092;2023-11-19T02:18:29;10.60;99.90
12957;DHT22;6543;48.836;10.092;2023-11-19T02:20:55;9.10;99.90
12957;DHT22;6543;48.836;10.092;2023-11-19T02:23:23;10.70;99.90
12957;DHT22;6543;48.836;10.092;2023-11-19T02:26:05;9.30;99.90
12957;DHT22;6543;48.836;10.092;2023-11-19T02:28:37;9.50;99.90
12957;DHT22;6543;48.836;10.092;2023-11-19T02:31:04;9.50;99.90
12957;DHT22;6543;48.836;10.092;2023-11-19T02:33:35;9.50;99.90
12957;DHT22;6543;48.836;10.092;2023-11-19T02:36:01;9.50;99.90
12957;DHT22;6543;48.836;10.092;2023-11-19T02:38:29;9.50;99.90
12957;DHT22;6543;48.836;10.092;2023-11-19T02:40:56;9.80;99.90
12957;DHT22;6543;48.836;10.092;2023-11-19T02:43:23;9.50;99.90
12957;DHT22;6543;48.836;10.092;2023-11-19T02:45:51;9.50;99.90
12957;DHT22;6543;48.836;10.092;2023-11-19T02:48:21;9.50;99.90
12957;DHT22;6543;48.836;10.092;2023-11-19T02:50:48;9.50;99.90
12957;DHT22;6543;48.836;10.092;2023-11-19T02:53:15;10.90;99.90
12957;DHT22;6543;48.836;10.092;2023-11-19T02:55:43;9.50;99.90
12957;DHT22;6543;48.836;10.092;2023-11-19T02:58:14;11.00;99.90
12957;DHT22;6543;48.836;10.092;2023-11-19T03:00:50;10.90;99.90
12957;DHT22;6543;48.836;10.092;2023-11-19T03:03:23;10.40;99.90
12957;DHT22;6543;48.836;10.092;2023-11-19T03:05:54;9.40;99.90
12957;DHT22;6543;48.836;10.092;2023-11-19T03:08:21;9.60;99.90
12957;DHT22;6543;48.836;10.092;2023-11-19T03:10:49;9.40;99.90
12957;DHT22;6543;48.836;10.092;2023-11-19T03:13:16;9.40;99.90
12957;DHT22;6543;48.836;10.092;2023-11-19T03:15:43;10.30;99.90
12957;DHT22;6543;48.836;10.092;2023-11-19T03:18:11;9.50;99.90
12957;DHT22;6543;48.836;10.092;2023-11-19T03:20:38;10.60;99.90
12957;DHT22;6543;48.836;10.092;2023-11-19T03:23:05;9.60;99.90
12957;DHT22;6543;48.836;10.092;2023-11-19T03:25:32;9.50;99.90
12957;DHT22;6543;48.836;10.092;2023-11-19T03:28:00;9.50;99.90
12957;DHT22;6543;48.836;10.092;2023-11-19T03:30:27;11.60;99.90
12957;DHT22;6543;48.836;10.092;2023-11-19T03:32:55;9.60;99.90
12957;DHT22;6543;48.836;10.092;2023-11-19T03:35:23;11.00;99.90
12957;DHT22;6543;48.836;10.092;2023-11-19T03:37:50;10.80;99.90
12957;DHT22;6543;48.836;10.092;2023-11-19T03:40:18;9.60;99.90
12957;DHT22;6543;48.836;10.092;2023-11-19T03:42:45;11.50;99.90
12957;DHT22;6543;48.836;10.092;2023-11-19T03:45:12;10.40;99.90
12957;DHT22;6543;48.836;10.092;2023-11-19T03:47:40;9.60;99.90
12957;DHT22;6543;48.836;10.092;2023-11-19T03:50:07;10.80;99.90
12957;DHT22;6543;48.836;10.092;2023-11-19T03:52:36;9.60;99.90
12957;DHT22;6543;48.836;10.092;2023-11-19T03:55:04;9.60;99.90
12957;DHT22;6543;48.836;10.092;2023-11-19T03:57:31;9.70;99.90
12957;DHT22;6543;48.836;10.092;2023-11-19T03:59:58;12.30;99.90
12957;DHT22;6543;48.836;10.092;2023-11-19T04:02:25;9.70;99.90
12957;DHT22;6543;48.836;10.092;2023-11-19T04:04:54;9.70;99.90
12957;DHT22;6543;48.836;10.092;2023-11-19T04:07:21;9.70;99.90
12957;DHT22;6543;48.836;10.092;2023-11-19T04:09:49;9.70;99.90
12957;DHT22;6543;48.836;10.092;2023-11-19T04:12:16;12.40;99.90
12957;DHT22;6543;48.836;10.092;2023-11-19T04:14:43;10.20;99.90
12957;DHT22;6543;48.836;10.092;2023-11-19T04:17:10;9.80;99.90
12957;DHT22;6543;48.836;10.092;2023-11-19T04:19:36;10.20;99.90
12957;DHT22;6543;48.836;10.092;2023-11-19T04:22:06;10.70;99.90
12957;DHT22;6543;48.836;10.092;2023-11-19T04:24:33;9.90;99.90
12957;DHT22;6543;48.836;10.092;2023-11-19T04:27:01;11.00;99.90
12957;DHT22;6543;48.836;10.092;2023-11-19T04:29:30;10.60;99.90
12957;DHT22;6543;48.836;10.092;2023-11-19T04:31:57;10.10;99.90
12957;DHT22;6543;48.836;10.092;2023-11-19T04:34:24;11.50;99.90
12957;DHT22;6543;48.836;10.092;2023-11-19T04:36:51;10.20;99.90
12957;DHT22;6543;48.836;10.092;2023-11-19T04:39:18;12.70;99.90
12957;DHT22;6543;48.836;10.092;2023-11-19T04:41:48;10.20;99.90
12957;DHT22;6543;48.836;10.092;2023-11-19T04:44:17;10.20;99.90
12957;DHT22;6543;48.836;10.092;2023-11-19T04:46:44;10.70;99.90
12957;DHT22;6543;48.836;10.092;2023-11-19T04:49:11;10.30;99.90
12957;DHT22;6543;48.836;10.092;2023-11-19T04:51:39;10.90;99.90
12957;DHT22;6543;48.836;10.092;2023-11-19T04:54:07;10.30;99.90
12957;DHT22;6543;48.836;10.092;2023-11-19T04:56:34;10.40;99.90
12957;DHT22;6543;48.836;10.092;2023-11-19T04:59:01;10.40;99.90
12957;DHT22;6543;48.836;10.092;2023-11-19T05:01:30;10.40;99.90
12957;DHT22;6543;48.836;10.092;2023-11-19T05:03:57;10.30;99.90
12957;DHT22;6543;48.836;10.092;2023-11-19T05:08:53;10.40;99.90
12957;DHT22;6543;48.836;10.092;2023-11-19T05:13:47;10.40;99.90
12957;DHT22;6543;48.836;10.092;2023-11-19T05:21:11;10.50;99.90
12957;DHT22;6543;48.836;10.092;2023-11-19T05:23:38;10.40;99.90
12957;DHT22;6543;48.836;10.092;2023-11-19T05:26:07;10.50;99.90
12957;DHT22;6543;48.836;10.092;2023-11-19T05:28:34;9.10;99.90
12957;DHT22;6543;48.836;10.092;2023-11-19T05:31:01;12.10;99.90
12957;DHT22;6543;48.836;10.092;2023-11-19T05:33:27;10.60;99.90
12957;DHT22;6543;48.836;10.092;2023-11-19T05:35:56;10.50;99.90
12957;DHT22;6543;48.836;10.092;2023-11-19T05:38:22;10.50;99.90
12957;DHT22;6543;48.836;10.092;2023-11-19T05:40:49;10.60;99.90
12957;DHT22;6543;48.836;10.092;2023-11-19T05:43:16;10.60;99.90
12957;DHT22;6543;48.836;10.092;2023-11-19T05:45:43;10.60;99.90
12957;DHT22;6543;48.836;10.092;2023-11-19T05:48:10;10.60;99.90
12957;DHT22;6543;48.836;10.092;2023-11-19T05:50:36;10.60;99.90
12957;DHT22;6543;48.836;10.092;2023-11-19T05:53:05;10.60;99.90
12957;DHT22;6543;48.836;10.092;2023-11-19T05:55:35;10.60;99.90
12957;DHT22;6543;48.836;10.092;2023-11-19T05:58:03;10.60;99.90
12957;DHT22;6543;48.836;10.092;2023-11-19T06:00:32;12.00;99.90
12957;DHT22;6543;48.836;10.092;2023-11-19T06:03:01;11.90;99.90
12957;DHT22;6543;48.836;10.092;2023-11-19T06:10:24;10.80;99.90
12957;DHT22;6543;48.836;10.092;2023-11-19T06:15:25;10.80;99.90
12957;DHT22;6543;48.836;10.092;2023-11-19T06:17:52;10.80;99.90
12957;DHT22;6543;48.836;10.092;2023-11-19T06:20:18;10.70;99.90
12957;DHT22;6543;48.836;10.092;2023-11-19T06:22:46;10.70;99.90
12957;DHT22;6543;48.836;10.092;2023-11-19T06:25:13;10.80;99.90
12957;DHT22;6543;48.836;10.092;2023-11-19T06:27:42;10.70;99.90
12957;DHT22;6543;48.836;10.092;2023-11-19T06:30:10;10.80;99.90
12957;DHT22;6543;48.836;10.092;2023-11-19T06:32:37;10.70;99.90
12957;DHT22;6543;48.836;10.092;2023-11-19T06:35:04;10.70;99.90
12957;DHT22;6543;48.836;10.092;2023-11-19T06:37:31;10.80;99.90
12957;DHT22;6543;48.836;10.092;2023-11-19T06:39:58;11.30;99.90
12957;DHT22;6543;48.836;10.092;2023-11-19T06:42:28;10.80;99.90
12957;DHT22;6543;48.836;10.092;2023-11-19T06:44:56;10.80;99.90
12957;DHT22;6543;48.836;10.092;2023-11-19T06:47:25;10.80;99.90
12957;DHT22;6543;48.836;10.092;2023-11-19T06:49:53;10.80;99.90
12957;DHT22;6543;48.836;10.092;2023-11-19T06:52:20;10.90;99.90
12957;DHT22;6543;48.836;10.092;2023-11-19T06:54:47;10.90;99.90
12957;DHT22;6543;48.836;10.092;2023-11-19T06:57:14;10.90;99.90
12957;DHT22;6543;48.836;10.092;2023-11-19T06:59:41;11.00;99.90
12957;DHT22;6543;48.836;10.092;2023-11-19T07:02:10;11.00;99.90
12957;DHT22;6543;48.836;10.092;2023-11-19T07:04:36;11.00;99.90
12957;DHT22;6543;48.836;10.092;2023-11-19T07:07:03;11.10;99.90
12957;DHT22;6543;48.836;10.092;2023-11-19T07:12:03;11.10;99.90
12957;DHT22;6543;48.836;10.092;2023-11-19T07:14:30;11.10;99.90
12957;DHT22;6543;48.836;10.092;2023-11-19T07:16:57;11.20;99.90
12957;DHT22;6543;48.836;10.092;2023-11-19T07:19:25;11.20;99.90
12957;DHT22;6543;48.836;10.092;2023-11-19T07:21:52;11.20;99.90
12957;DHT22;6543;48.836;10.092;2023-11-19T07:24:19;11.30;99.90
12957;DHT22;6543;48.836;10.092;2023-11-19T07:26:47;11.40;99.90
12957;DHT22;6543;48.836;10.092;2023-11-19T07:29:14;11.40;99.90
12957;DHT22;6543;48.836;10.092;2023-11-19T07:31:42;11.50;99.90
12957;DHT22;6543;48.836;10.092;2023-11-19T07:34:09;11.40;99.90
12957;DHT22;6543;48.836;10.092;2023-11-19T07:36:38;12.00;99.90
12957;DHT22;6543;48.836;10.092;2023-11-19T07:39:05;11.40;99.90
12957;DHT22;6543;48.836;10.092;2023-11-19T07:41:32;11.40;99.90
12957;DHT22;6543;48.836;10.092;2023-11-19T07:44:00;11.60;99.90
12957;DHT22;6543;48.836;10.092;2023-11-19T07:46:27;11.60;99.90
12957;DHT22;6543;48.836;10.092;2023-11-19T07:48:53;11.60;99.90
12957;DHT22;6543;48.836;10.092;2023-11-19T07:51:20;11.60;99.90
12957;DHT22;6543;48.836;10.092;2023-11-19T07:53:48;11.70;99.90
12957;DHT22;6543;48.836;10.092;2023-11-19T07:56:15;11.70;99.90
12957;DHT22;6543;48.836;10.092;2023-11-19T07:58:42;11.70;99.90
12957;DHT22;6543;48.836;10.092;2023-11-19T08:01:09;11.70;99.90
12957;DHT22;6543;48.836;10.092;2023-11-19T08:03:36;12.00;99.90
12957;DHT22;6543;48.836;10.092;2023-11-19T08:06:04;11.80;99.90
12957;DHT22;6543;48.836;10.092;2023-11-19T08:08:30;11.80;99.90
12957;DHT22;6543;48.836;10.092;2023-11-19T08:11:00;11.80;99.90
12957;DHT22;6543;48.836;10.092;2023-11-19T08:13:27;12.30;99.90
12957;DHT22;6543;48.836;10.092;2023-11-19T08:15:53;11.90;99.90
12957;DHT22;6543;48.836;10.092;2023-11-19T08:18:20;12.00;99.90
12957;DHT22;6543;48.836;10.092;2023-11-19T08:20:48;12.00;99.90
12957;DHT22;6543;48.836;10.092;2023-11-19T08:23:19;12.10;99.90
12957;DHT22;6543;48.836;10.092;2023-11-19T08:25:46;12.20;99.90
12957;DHT22;6543;48.836;10.092;2023-11-19T08:28:14;12.30;99.90
12957;DHT22;6543;48.836;10.092;2023-11-19T08:30:41;12.40;99.90
12957;DHT22;6543;48.836;10.092;2023-11-19T08:33:09;12.30;99.90
12957;DHT22;6543;48.836;10.092;2023-11-19T08:35:37;12.30;99.90
12957;DHT22;6543;48.836;10.092;2023-11-19T08:38:03;13.10;99.90
12957;DHT22;6543;48.836;10.092;2023-11-19T08:40:30;12.20;99.90
12957;DHT22;6543;48.836;10.092;2023-11-19T08:42:57;12.50;99.90
12957;DHT22;6543;48.836;10.092;2023-11-19T08:45:25;11.80;99.90
12957;DHT22;6543;48.836;10.092;2023-11-19T08:47:52;12.50;99.90
12957;DHT22;6543;48.836;10.092;2023-11-19T08:50:19;12.50;99.90
12957;DHT22;6543;48.836;10.092;2023-11-19T08:52:46;12.60;99.90
12957;DHT22;6543;48.836;10.092;2023-11-19T08:55:12;12.60;99.90
12957;DHT22;6543;48.836;10.092;2023-11-19T08:57:39;14.00;99.90
12957;DHT22;6543;48.836;10.092;2023-11-19T09:00:07;12.80;99.90
12957;DHT22;6543;48.836;10.092;2023-11-19T09:02:35;12.90;99.90
12957;DHT22;6543;48.836;10.092;2023-11-19T09:05:04;12.90;99.90
12957;DHT22;6543;48.836;10.092;2023-11-19T09:07:31;13.00;99.90
12957;DHT22;6543;48.836;10.092;2023-11-19T09:09:58;13.10;99.90
12957;DHT22;6543;48.836;10.092;2023-11-19T09:12:25;15.00;99.90
12957;DHT22;6543;48.836;10.092;2023-11-19T09:14:51;13.10;99.90
12957;DHT22;6543;48.836;10.092;2023-11-19T09:17:18;13.10;99.90
12957;DHT22;6543;48.836;10.092;2023-11-19T09:19:46;13.20;99.90
12957;DHT22;6543;48.836;10.092;2023-11-19T09:22:13;13.40;99.90
12957;DHT22;6543;48.836;10.092;2023-11-19T09:24:40;13.40;99.90
12957;DHT22;6543;48.836;10.092;2023-11-19T09:27:07;15.80;99.90
12957;DHT22;6543;48.836;10.092;2023-11-19T09:29:33;13.30;99.90
12957;DHT22;6543;48.836;10.092;2023-11-19T09:32:00;13.00;99.90
12957;DHT22;6543;48.836;10.092;2023-11-19T09:34:27;13.00;99.90
12957;DHT22;6543;48.836;10.092;2023-11-19T09:36:55;13.00;99.90
12957;DHT22;6543;48.836;10.092;2023-11-19T09:39:22;14.10;99.90
12957;DHT22;6543;48.836;10.092;2023-11-19T09:41:51;14.90;99.90
12957;DHT22;6543;48.836;10.092;2023-11-19T09:44:18;13.00;99.90
12957;DHT22;6543;48.836;10.092;2023-11-19T09:46:45;13.40;99.90
12957;DHT22;6543;48.836;10.092;2023-11-19T09:49:14;14.70;99.90
12957;DHT22;6543;48.836;10.092;2023-11-19T09:51:45;13.90;99.90
12957;DHT22;6543;48.836;10.092;2023-11-19T09:54:14;13.00;99.90
12957;DHT22;6543;48.836;10.092;2023-11-19T09:56:40;13.10;99.90
12957;DHT22;6543;48.836;10.092;2023-11-19T09:59:08;13.10;99.90
12957;DHT22;6543;48.836;10.092;2023-11-19T10:01:38;13.20;99.90
12957;DHT22;6543;48.836;10.092;2023-11-19T10:04:06;13.30;99.90
12957;DHT22;6543;48.836;10.092;2023-11-19T10:06:33;13.40;99.90
12957;DHT22;6543;48.836;10.092;2023-11-19T10:09:00;13.50;99.90
12957;DHT22;6543;48.836;10.092;2023-11-19T10:11:28;14.20;99.90
12957;DHT22;6543;48.836;10.092;2023-11-19T10:13:55;13.60;99.90
12957;DHT22;6543;48.836;10.092;2023-11-19T10:16:28;13.60;99.90
12957;DHT22;6543;48.836;10.092;2023-11-19T10:18:56;13.70;99.90
12957;DHT22;6543;48.836;10.092;2023-11-19T10:21:23;13.60;99.90
12957;DHT22;6543;48.836;10.092;2023-11-19T10:23:51;13.70;99.90
12957;DHT22;6543;48.836;10.092;2023-11-19T10:26:19;13.60;99.90
12957;DHT22;6543;48.836;10.092;2023-11-19T10:28:48;13.50;99.90
12957;DHT22;6543;48.836;10.092;2023-11-19T10:31:15;13.30;99.90
12957;DHT22;6543;48.836;10.092;2023-11-19T10:33:42;13.20;99.90
12957;DHT22;6543;48.836;10.092;2023-11-19T10:36:10;13.80;99.90
12957;DHT22;6543;48.836;10.092;2023-11-19T10:38:38;13.20;99.90
12957;DHT22;6543;48.836;10.092;2023-11-19T10:41:05;13.30;99.90
12957;DHT22;6543;48.836;10.092;2023-11-19T10:43:41;13.40;99.90
12957;DHT22;6543;48.836;10.092;2023-11-19T10:46:12;13.50;99.90
12957;DHT22;6543;48.836;10.092;2023-11-19T10:48:39;13.50;99.90
12957;DHT22;6543;48.836;10.092;2023-11-19T10:51:07;13.60;99.90
12957;DHT22;6543;48.836;10.092;2023-11-19T10:53:36;13.60;99.90
12957;DHT22;6543;48.836;10.092;2023-11-19T10:56:06;13.60;99.90
12957;DHT22;6543;48.836;10.092;2023-11-19T10:58:36;13.60;99.90
12957;DHT22;6543;48.836;10.092;2023-11-19T11:01:11;13.60;99.90
12957;DHT22;6543;48.836;10.092;2023-11-19T11:03:40;13.70;99.90
12957;DHT22;6543;48.836;10.092;2023-11-19T11:06:08;15.40;99.90
12957;DHT22;6543;48.836;10.092;2023-11-19T11:08:37;13.70;99.90
12957;DHT22;6543;48.836;10.092;2023-11-19T11:11:05;15.60;99.90
12957;DHT22;6543;48.836;10.092;2023-11-19T11:13:33;13.90;99.90
12957;DHT22;6543;48.836;10.092;2023-11-19T11:16:00;13.90;99.90
12957;DHT22;6543;48.836;10.092;2023-11-19T11:18:31;13.90;99.90
12957;DHT22;6543;48.836;10.092;2023-11-19T11:21:01;14.10;99.90
12957;DHT22;6543;48.836;10.092;2023-11-19T11:23:49;15.50;99.90
12957;DHT22;6543;48.836;10.092;2023-11-19T11:29:31;14.00;99.90
12957;DHT22;6543;48.836;10.092;2023-11-19T11:32:12;14.10;99.90
12957;DHT22;6543;48.836;10.092;2023-11-19T11:35:02;14.10;99.90
12957;DHT22;6543;48.836;10.092;2023-11-19T11:37:37;15.20;99.90
12957;DHT22;6543;48.836;10.092;2023-11-19T11:40:06;14.40;99.90
12957;DHT22;6543;48.836;10.092;2023-11-19T11:42:36;14.40;99.90
12957;DHT22;6543;48.836;10.092;2023-11-19T11:45:07;14.80;99.90
12957;DHT22;6543;48.836;10.092;2023-11-19T11:50:56;14.30;99.90
12957;DHT22;6543;48.836;10.092;2023-11-19T11:53:23;14.40;99.90
12957;DHT22;6543;48.836;10.092;2023-11-19T11:55:57;14.50;99.90
12957;DHT22;6543;48.836;10.092;2023-11-19T11:58:32;16.70;99.90
12957;DHT22;6543;48.836;10.092;2023-11-19T12:01:02;17.10;99.90
12957;DHT22;6543;48.836;10.092;2023-11-19T12:03:31;14.60;99.90
12957;DHT22;6543;48.836;10.092;2023-11-19T12:06:00;14.90;99.90
12957;DHT22;6543;48.836;10.092;2023-11-19T12:08:28;14.90;99.90
12957;DHT22;6543;48.836;10.092;2023-11-19T12:13:54;14.60;99.90
12957;DHT22;6543;48.836;10.092;2023-11-19T12:16:24;14.60;99.90
12957;DHT22;6543;48.836;10.092;2023-11-19T12:18:53;14.40;99.90
12957;DHT22;6543;48.836;10.092;2023-11-19T12:21:31;14.30;99.90
12957;DHT22;6543;48.836;10.092;2023-11-19T12:23:59;14.30;99.90
12957;DHT22;6543;48.836;10.092;2023-11-19T12:26:33;15.50;99.90
12957;DHT22;6543;48.836;10.092;2023-11-19T12:29:00;14.10;99.90
12957;DHT22;6543;48.836;10.092;2023-11-19T12:31:29;14.00;99.90
12957;DHT22;6543;48.836;10.092;2023-11-19T12:33:56;14.00;99.90
12957;DHT22;6543;48.836;10.092;2023-11-19T12:36:23;14.00;99.90
12957;DHT22;6543;48.836;10.092;2023-11-19T12:38:51;13.80;99.90
12957;DHT22;6543;48.836;10.092;2023-11-19T12:41:18;13.70;99.90
12957;DHT22;6543;48.836;10.092;2023-11-19T12:43:48;13.80;99.90
12957;DHT22;6543;48.836;10.092;2023-11-19T12:46:18;15.20;99.90
12957;DHT22;6543;48.836;10.092;2023-11-19T12:48:45;13.80;99.90
12957;DHT22;6543;48.836;10.092;2023-11-19T12:51:12;14.40;99.90
12957;DHT22;6543;48.836;10.092;2023-11-19T12:53:47;13.80;99.90
12957;DHT22;6543;48.836;10.092;2023-11-19T12:56:17;14.50;99.90
12957;DHT22;6543;48.836;10.092;2023-11-19T12:58:43;15.70;99.90
12957;DHT22;6543;48.836;10.092;2023-11-19T13:01:16;14.00;99.90
12957;DHT22;6543;48.836;10.092;2023-11-19T13:03:43;14.00;99.90
12957;DHT22;6543;48.836;10.092;2023-11-19T13:06:11;14.10;99.90
12957;DHT22;6543;48.836;10.092;2023-11-19T13:08:39;14.30;99.90
12957;DHT22;6543;48.836;10.092;2023-11-19T13:11:06;16.20;99.90
12957;DHT22;6543;48.836;10.092;2023-11-19T13:13:56;14.10;99.90
12957;DHT22;6543;48.836;10.092;2023-11-19T13:16:23;14.10;99.90
12957;DHT22;6543;48.836;10.092;2023-11-19T13:18:51;15.40;99.90
12957;DHT22;6543;48.836;10.092;2023-11-19T13:21:18;16.80;99.90
12957;DHT22;6543;48.836;10.092;2023-11-19T13:23:45;15.70;99.90
12957;DHT22;6543;48.836;10.092;2023-11-19T13:26:11;14.50;99.90
12957;DHT22;6543;48.836;10.092;2023-11-19T13:28:38;14.70;99.90
12957;DHT22;6543;48.836;10.092;2023-11-19T13:31:07;14.70;99.90
12957;DHT22;6543;48.836;10.092;2023-11-19T13:33:34;14.80;99.90
12957;DHT22;6543;48.836;10.092;2023-11-19T13:36:01;14.70;99.90
12957;DHT22;6543;48.836;10.092;2023-11-19T13:38:31;14.90;99.90
12957;DHT22;6543;48.836;10.092;2023-11-19T13:40:58;14.80;99.90
12957;DHT22;6543;48.836;10.092;2023-11-19T13:43:25;14.60;99.90
12957;DHT22;6543;48.836;10.092;2023-11-19T13:45:53;14.50;99.90
12957;DHT22;6543;48.836;10.092;2023-11-19T13:48:22;15.00;99.90
12957;DHT22;6543;48.836;10.092;2023-11-19T13:50:49;14.50;99.90
12957;DHT22;6543;48.836;10.092;2023-11-19T13:53:18;14.50;99.90
12957;DHT22;6543;48.836;10.092;2023-11-19T13:55:45;14.60;99.90
12957;DHT22;6543;48.836;10.092;2023-11-19T13:58:13;15.30;99.90
12957;DHT22;6543;48.836;10.092;2023-11-19T14:00:39;14.90;99.90
12957;DHT22;6543;48.836;10.092;2023-11-19T14:03:07;16.30;99.90
12957;DHT22;6543;48.836;10.092;2023-11-19T14:05:37;16.60;99.90
12957;DHT22;6543;48.836;10.092;2023-11-19T14:08:04;17.40;99.90
12957;DHT22;6543;48.836;10.092;2023-11-19T14:10:37;15.00;99.90
12957;DHT22;6543;48.836;10.092;2023-11-19T14:13:06;14.90;99.90
12957;DHT22;6543;48.836;10.092;2023-11-19T14:15:32;14.90;99.90
12957;DHT22;6543;48.836;10.092;2023-11-19T14:17:59;14.90;99.90
12957;DHT22;6543;48.836;10.092;2023-11-19T14:20:26;14.90;99.90
12957;DHT22;6543;48.836;10.092;2023-11-19T14:22:55;17.30;99.90
12957;DHT22;6543;48.836;10.092;2023-11-19T14:25:21;15.80;99.90
12957;DHT22;6543;48.836;10.092;2023-11-19T14:27:49;14.80;99.90
12957;DHT22;6543;48.836;10.092;2023-11-19T14:30:16;15.40;99.90
12957;DHT22;6543;48.836;10.092;2023-11-19T14:32:43;14.70;99.90
12957;DHT22;6543;48.836;10.092;2023-11-19T14:35:11;14.60;99.90
12957;DHT22;6543;48.836;10.092;2023-11-19T14:37:38;15.20;99.90
12957;DHT22;6543;48.836;10.092;2023-11-19T14:40:07;14.40;99.90
12957;DHT22;6543;48.836;10.092;2023-11-19T14:42:36;14.40;99.90
12957;DHT22;6543;48.836;10.092;2023-11-19T14:45:05;14.30;99.90
12957;DHT22;6543;48.836;10.092;2023-11-19T14:47:32;14.30;99.90
12957;DHT22;6543;48.836;10.092;2023-11-19T14:49:59;14.20;99.90
12957;DHT22;6543;48.836;10.092;2023-11-19T14:52:26;14.10;99.90
12957;DHT22;6543;48.836;10.092;2023-11-19T14:54:53;14.10;99.90
12957;DHT22;6543;48.836;10.092;2023-11-19T14:57:23;14.00;99.90
12957;DHT22;6543;48.836;10.092;2023-11-19T14:59:52;14.00;99.90
12957;DHT22;6543;48.836;10.092;2023-11-19T15:02:19;13.90;99.90
12957;DHT22;6543;48.836;10.092;2023-11-19T15:04:47;16.20;99.90
12957;DHT22;6543;48.836;10.092;2023-11-19T15:07:14;14.70;99.90
12957;DHT22;6543;48.836;10.092;2023-11-19T15:09:40;13.80;99.90
12957;DHT22;6543;48.836;10.092;2023-11-19T15:12:07;13.70;99.90
12957;DHT22;6543;48.836;10.092;2023-11-19T15:14:36;13.60;99.90
12957;DHT22;6543;48.836;10.092;2023-11-19T15:17:03;13.60;99.90
12957;DHT22;6543;48.836;10.092;2023-11-19T15:19:32;13.90;99.90
12957;DHT22;6543;48.836;10.092;2023-11-19T15:21:59;13.40;99.90
12957;DHT22;6543;48.836;10.092;2023-11-19T15:24:29;13.40;99.90
12957;DHT22;6543;48.836;10.092;2023-11-19T15:26:56;14.20;99.90
12957;DHT22;6543;48.836;10.092;2023-11-19T15:29:23;13.20;99.90
12957;DHT22;6543;48.836;10.092;2023-11-19T15:31:51;13.10;99.90
12957;DHT22;6543;48.836;10.092;2023-11-19T15:34:18;14.70;99.90
12957;DHT22;6543;48.836;10.092;2023-11-19T15:36:45;13.40;99.90
12957;DHT22;6543;48.836;10.092;2023-11-19T15:39:13;12.90;99.90
12957;DHT22;6543;48.836;10.092;2023-11-19T15:41:40;12.90;99.90
12957;DHT22;6543;48.836;10.092;2023-11-19T15:44:06;12.90;99.90
12957;DHT22;6543;48.836;10.092;2023-11-19T15:46:33;13.50;99.90
12957;DHT22;6543;48.836;10.092;2023-11-19T15:49:01;12.70;99.90
12957;DHT22;6543;48.836;10.092;2023-11-19T15:51:28;12.60;99.90
12957;DHT22;6543;48.836;10.092;2023-11-19T15:53:55;12.50;99.90
12957;DHT22;6543;48.836;10.092;2023-11-19T15:56:22;12.50;99.90
12957;DHT22;6543;48.836;10.092;2023-11-19T15:58:49;13.00;99.90
12957;DHT22;6543;48.836;10.092;2023-11-19T16:01:17;12.40;99.90
12957;DHT22;6543;48.836;10.092;2023-11-19T16:03:43;12.30;99.90
12957;DHT22;6543;48.836;10.092;2023-11-19T16:06:12;12.40;99.90
12957;DHT22;6543;48.836;10.092;2023-11-19T16:08:38;12.30;99.90